Terminal Aerodrome Forecast
Issued by NWS Spokane, WA

Home | Current Version | Previous Version | Text Only | Print | Product List | Glossary On
Versions: 1 2 3 4 5 6 7 8 9 10 11 12 13 14 15 16 17 18 19 20 21 22 23
000
FTUS46 KOTX 240526
TAFLWS
TAF
KLWS 240526Z 2406/2506 12005KT P6SM SCT150 BKN200
     FM241000 12006KT P6SM BKN070 OVC100
     FM241800 15006KT P6SM -RA OVC050
     FM242200 16006KT 5SM -RA BR OVC030
     FM250200 VRB04KT P6SM VCSH BKN100=

USA.gov is the U.S. government's official web portal to all federal, state and local government web resources and services.